sensor_id;sensor_type;location;lat;lon;timestamp;temperature;humidity
22678;DHT22;26259;50.214;18.620;2022-09-03T00:02:18;7.40;99.90
22678;DHT22;26259;50.214;18.620;2022-09-03T00:05:02;7.30;99.90
22678;DHT22;26259;50.214;18.620;2022-09-03T00:07:48;7.30;99.90
22678;DHT22;26259;50.214;18.620;2022-09-03T00:10:44;7.20;99.90
22678;DHT22;26259;50.214;18.620;2022-09-03T00:13:15;7.20;99.90
22678;DHT22;26259;50.214;18.620;2022-09-03T00:15:41;7.10;99.90
22678;DHT22;26259;50.214;18.620;2022-09-03T00:18:17;7.10;99.90
22678;DHT22;26259;50.214;18.620;2022-09-03T00:20:49;7.00;99.90
22678;DHT22;26259;50.214;18.620;2022-09-03T00:23:20;7.00;99.90
22678;DHT22;26259;50.214;18.620;2022-09-03T00:29:01;6.90;99.90
22678;DHT22;26259;50.214;18.620;2022-09-03T00:31:37;6.90;99.90
22678;DHT22;26259;50.214;18.620;2022-09-03T00:36:42;6.80;99.90
22678;DHT22;26259;50.214;18.620;2022-09-03T00:39:16;6.80;99.90
22678;DHT22;26259;50.214;18.620;2022-09-03T00:47:45;6.80;99.90
22678;DHT22;26259;50.214;18.620;2022-09-03T00:56:07;6.60;99.90
22678;DHT22;26259;50.214;18.620;2022-09-03T01:01:47;6.60;99.90
22678;DHT22;26259;50.214;18.620;2022-09-03T01:04:41;6.60;99.90
22678;DHT22;26259;50.214;18.620;2022-09-03T01:07:39;6.60;99.90
22678;DHT22;26259;50.214;18.620;2022-09-03T01:10:30;6.50;99.90
22678;DHT22;26259;50.214;18.620;2022-09-03T01:13:29;6.50;99.90
22678;DHT22;26259;50.214;18.620;2022-09-03T01:16:25;6.50;99.90
22678;DHT22;26259;50.214;18.620;2022-09-03T01:19:12;6.50;99.90
22678;DHT22;26259;50.214;18.620;2022-09-03T01:28:00;6.40;99.90
22678;DHT22;26259;50.214;18.620;2022-09-03T01:30:27;6.40;99.90
22678;DHT22;26259;50.214;18.620;2022-09-03T01:33:19;6.30;99.90
22678;DHT22;26259;50.214;18.620;2022-09-03T01:35:48;6.30;99.90
22678;DHT22;26259;50.214;18.620;2022-09-03T01:41:24;6.30;99.90
22678;DHT22;26259;50.214;18.620;2022-09-03T01:46:54;6.30;99.90
22678;DHT22;26259;50.214;18.620;2022-09-03T01:52:16;6.30;99.90
22678;DHT22;26259;50.214;18.620;2022-09-03T01:58:05;6.30;99.90
22678;DHT22;26259;50.214;18.620;2022-09-03T02:00:34;6.30;99.90
22678;DHT22;26259;50.214;18.620;2022-09-03T02:03:05;6.20;99.90
22678;DHT22;26259;50.214;18.620;2022-09-03T02:05:31;6.20;99.90
22678;DHT22;26259;50.214;18.620;2022-09-03T02:07:57;6.20;99.90
22678;DHT22;26259;50.214;18.620;2022-09-03T02:13:14;6.20;99.90
22678;DHT22;26259;50.214;18.620;2022-09-03T02:15:43;6.20;99.90
22678;DHT22;26259;50.214;18.620;2022-09-03T02:18:16;6.10;99.90
22678;DHT22;26259;50.214;18.620;2022-09-03T02:20:43;6.10;99.90
22678;DHT22;26259;50.214;18.620;2022-09-03T02:23:12;6.10;99.90
22678;DHT22;26259;50.214;18.620;2022-09-03T02:25:42;6.10;99.90
22678;DHT22;26259;50.214;18.620;2022-09-03T02:28:09;6.10;99.90
22678;DHT22;26259;50.214;18.620;2022-09-03T02:30:35;6.10;99.90
22678;DHT22;26259;50.214;18.620;2022-09-03T02:33:01;6.00;99.90
22678;DHT22;26259;50.214;18.620;2022-09-03T02:35:27;6.00;99.90
22678;DHT22;26259;50.214;18.620;2022-09-03T02:37:53;6.00;99.90
22678;DHT22;26259;50.214;18.620;2022-09-03T02:40:18;6.00;99.90
22678;DHT22;26259;50.214;18.620;2022-09-03T02:42:45;6.00;99.90
22678;DHT22;26259;50.214;18.620;2022-09-03T02:45:26;6.00;99.90
22678;DHT22;26259;50.214;18.620;2022-09-03T02:47:58;6.00;99.90
22678;DHT22;26259;50.214;18.620;2022-09-03T02:50:25;6.00;99.90
22678;DHT22;26259;50.214;18.620;2022-09-03T02:52:51;6.00;99.90
22678;DHT22;26259;50.214;18.620;2022-09-03T02:55:18;6.00;99.90
22678;DHT22;26259;50.214;18.620;2022-09-03T02:57:44;6.00;99.90
22678;DHT22;26259;50.214;18.620;2022-09-03T03:00:10;6.00;99.90
22678;DHT22;26259;50.214;18.620;2022-09-03T03:02:36;6.00;99.90
22678;DHT22;26259;50.214;18.620;2022-09-03T03:05:03;6.00;99.90
22678;DHT22;26259;50.214;18.620;2022-09-03T03:07:31;6.00;99.90
22678;DHT22;26259;50.214;18.620;2022-09-03T03:09:58;6.00;99.90
22678;DHT22;26259;50.214;18.620;2022-09-03T03:12:24;6.00;99.90
22678;DHT22;26259;50.214;18.620;2022-09-03T03:14:50;5.90;99.90
22678;DHT22;26259;50.214;18.620;2022-09-03T03:17:15;5.90;99.90
22678;DHT22;26259;50.214;18.620;2022-09-03T03:19:41;5.90;99.90
22678;DHT22;26259;50.214;18.620;2022-09-03T03:22:06;5.90;99.90
22678;DHT22;26259;50.214;18.620;2022-09-03T03:24:32;5.80;99.90
22678;DHT22;26259;50.214;18.620;2022-09-03T03:26:57;5.80;99.90
22678;DHT22;26259;50.214;18.620;2022-09-03T03:29:23;5.80;99.90
22678;DHT22;26259;50.214;18.620;2022-09-03T03:31:50;5.80;99.90
22678;DHT22;26259;50.214;18.620;2022-09-03T03:34:16;5.80;99.90
22678;DHT22;26259;50.214;18.620;2022-09-03T03:36:41;5.80;99.90
22678;DHT22;26259;50.214;18.620;2022-09-03T03:39:07;5.70;99.90
22678;DHT22;26259;50.214;18.620;2022-09-03T03:41:34;5.80;99.90
22678;DHT22;26259;50.214;18.620;2022-09-03T03:44:03;5.70;99.90
22678;DHT22;26259;50.214;18.620;2022-09-03T03:46:32;5.70;99.90
22678;DHT22;26259;50.214;18.620;2022-09-03T03:48:58;5.70;99.90
22678;DHT22;26259;50.214;18.620;2022-09-03T03:51:24;5.70;99.90
22678;DHT22;26259;50.214;18.620;2022-09-03T03:53:56;5.70;99.90
22678;DHT22;26259;50.214;18.620;2022-09-03T03:56:22;5.70;99.90
22678;DHT22;26259;50.214;18.620;2022-09-03T03:58:48;5.70;99.90
22678;DHT22;26259;50.214;18.620;2022-09-03T04:01:19;5.70;99.90
22678;DHT22;26259;50.214;18.620;2022-09-03T04:03:45;5.70;99.90
22678;DHT22;26259;50.214;18.620;2022-09-03T04:06:13;5.70;99.90
22678;DHT22;26259;50.214;18.620;2022-09-03T04:08:41;5.80;99.90
22678;DHT22;26259;50.214;18.620;2022-09-03T04:11:08;5.80;99.90
22678;DHT22;26259;50.214;18.620;2022-09-03T04:13:37;5.80;99.90
22678;DHT22;26259;50.214;18.620;2022-09-03T04:16:11;5.80;99.90
22678;DHT22;26259;50.214;18.620;2022-09-03T04:18:37;5.80;99.90
22678;DHT22;26259;50.214;18.620;2022-09-03T04:23:35;5.80;99.90
22678;DHT22;26259;50.214;18.620;2022-09-03T04:26:02;5.90;99.90
22678;DHT22;26259;50.214;18.620;2022-09-03T04:28:28;5.90;99.90
22678;DHT22;26259;50.214;18.620;2022-09-03T04:30:53;5.90;99.90
22678;DHT22;26259;50.214;18.620;2022-09-03T04:33:19;6.00;99.90
22678;DHT22;26259;50.214;18.620;2022-09-03T04:35:45;6.00;99.90
22678;DHT22;26259;50.214;18.620;2022-09-03T04:38:11;6.00;99.90
22678;DHT22;26259;50.214;18.620;2022-09-03T04:40:37;6.10;99.90
22678;DHT22;26259;50.214;18.620;2022-09-03T04:43:03;6.10;99.90
22678;DHT22;26259;50.214;18.620;2022-09-03T04:45:28;6.20;99.90
22678;DHT22;26259;50.214;18.620;2022-09-03T04:48:01;6.20;99.90
22678;DHT22;26259;50.214;18.620;2022-09-03T04:50:27;6.30;99.90
22678;DHT22;26259;50.214;18.620;2022-09-03T04:53:03;6.30;99.90
22678;DHT22;26259;50.214;18.620;2022-09-03T04:55:34;6.40;99.90
22678;DHT22;26259;50.214;18.620;2022-09-03T04:57:59;6.50;99.90
22678;DHT22;26259;50.214;18.620;2022-09-03T05:00:25;6.60;99.90
22678;DHT22;26259;50.214;18.620;2022-09-03T05:02:51;6.70;99.90
22678;DHT22;26259;50.214;18.620;2022-09-03T05:05:17;6.80;99.90
22678;DHT22;26259;50.214;18.620;2022-09-03T05:07:43;6.90;99.90
22678;DHT22;26259;50.214;18.620;2022-09-03T05:10:11;7.10;99.90
22678;DHT22;26259;50.214;18.620;2022-09-03T05:12:40;7.20;99.90
22678;DHT22;26259;50.214;18.620;2022-09-03T05:15:07;7.40;99.90
22678;DHT22;26259;50.214;18.620;2022-09-03T05:17:32;7.60;99.90
22678;DHT22;26259;50.214;18.620;2022-09-03T05:19:58;7.70;99.90
22678;DHT22;26259;50.214;18.620;2022-09-03T05:22:23;7.90;99.90
22678;DHT22;26259;50.214;18.620;2022-09-03T05:24:49;8.20;99.90
22678;DHT22;26259;50.214;18.620;2022-09-03T05:27:16;8.40;99.90
22678;DHT22;26259;50.214;18.620;2022-09-03T05:29:44;8.70;99.90
22678;DHT22;26259;50.214;18.620;2022-09-03T05:32:11;8.90;99.90
22678;DHT22;26259;50.214;18.620;2022-09-03T05:34:37;9.10;99.90
22678;DHT22;26259;50.214;18.620;2022-09-03T05:37:03;9.30;99.90
22678;DHT22;26259;50.214;18.620;2022-09-03T05:39:29;9.50;99.90
22678;DHT22;26259;50.214;18.620;2022-09-03T05:41:54;9.60;99.90
22678;DHT22;26259;50.214;18.620;2022-09-03T05:44:20;9.80;99.90
22678;DHT22;26259;50.214;18.620;2022-09-03T05:46:48;9.90;99.90
22678;DHT22;26259;50.214;18.620;2022-09-03T05:49:14;10.10;99.90
22678;DHT22;26259;50.214;18.620;2022-09-03T05:51:40;10.30;99.90
22678;DHT22;26259;50.214;18.620;2022-09-03T05:54:07;10.60;99.90
22678;DHT22;26259;50.214;18.620;2022-09-03T05:56:33;10.90;99.90
22678;DHT22;26259;50.214;18.620;2022-09-03T05:59:01;11.10;99.90
22678;DHT22;26259;50.214;18.620;2022-09-03T06:01:32;11.40;99.90
22678;DHT22;26259;50.214;18.620;2022-09-03T06:04:07;11.60;99.90
22678;DHT22;26259;50.214;18.620;2022-09-03T06:06:35;11.80;99.90
22678;DHT22;26259;50.214;18.620;2022-09-03T06:09:04;12.00;99.90
22678;DHT22;26259;50.214;18.620;2022-09-03T06:11:31;12.10;99.90
22678;DHT22;26259;50.214;18.620;2022-09-03T06:13:59;12.30;99.90
22678;DHT22;26259;50.214;18.620;2022-09-03T06:16:29;12.40;99.90
22678;DHT22;26259;50.214;18.620;2022-09-03T06:18:56;12.50;99.90
22678;DHT22;26259;50.214;18.620;2022-09-03T06:21:21;12.60;99.90
22678;DHT22;26259;50.214;18.620;2022-09-03T06:23:51;12.70;99.90
22678;DHT22;26259;50.214;18.620;2022-09-03T06:26:17;12.90;99.90
22678;DHT22;26259;50.214;18.620;2022-09-03T06:28:44;13.00;99.90
22678;DHT22;26259;50.214;18.620;2022-09-03T06:31:11;13.20;99.90
22678;DHT22;26259;50.214;18.620;2022-09-03T06:33:38;13.40;99.90
22678;DHT22;26259;50.214;18.620;2022-09-03T06:36:06;13.50;99.90
22678;DHT22;26259;50.214;18.620;2022-09-03T06:38:33;13.70;99.90
22678;DHT22;26259;50.214;18.620;2022-09-03T06:41:07;13.80;99.90
22678;DHT22;26259;50.214;18.620;2022-09-03T06:43:40;13.90;99.90
22678;DHT22;26259;50.214;18.620;2022-09-03T06:46:12;14.00;99.90
22678;DHT22;26259;50.214;18.620;2022-09-03T06:48:39;14.20;99.90
22678;DHT22;26259;50.214;18.620;2022-09-03T06:51:09;14.30;99.90
22678;DHT22;26259;50.214;18.620;2022-09-03T06:53:40;14.40;99.90
22678;DHT22;26259;50.214;18.620;2022-09-03T06:56:09;14.50;99.90
22678;DHT22;26259;50.214;18.620;2022-09-03T06:58:37;14.70;99.90
22678;DHT22;26259;50.214;18.620;2022-09-03T07:01:03;14.70;99.90
22678;DHT22;26259;50.214;18.620;2022-09-03T07:03:34;14.90;99.90
22678;DHT22;26259;50.214;18.620;2022-09-03T07:06:06;15.00;99.90
22678;DHT22;26259;50.214;18.620;2022-09-03T07:08:33;15.10;99.90
22678;DHT22;26259;50.214;18.620;2022-09-03T07:10:59;15.30;99.90
22678;DHT22;26259;50.214;18.620;2022-09-03T07:13:40;15.30;99.90
22678;DHT22;26259;50.214;18.620;2022-09-03T07:16:09;15.40;99.90
22678;DHT22;26259;50.214;18.620;2022-09-03T07:18:35;15.60;99.90
22678;DHT22;26259;50.214;18.620;2022-09-03T07:21:06;15.70;99.90
22678;DHT22;26259;50.214;18.620;2022-09-03T07:23:33;15.80;99.90
22678;DHT22;26259;50.214;18.620;2022-09-03T07:26:02;15.90;99.90
22678;DHT22;26259;50.214;18.620;2022-09-03T07:28:29;16.00;99.90
22678;DHT22;26259;50.214;18.620;2022-09-03T07:31:03;16.10;99.90
22678;DHT22;26259;50.214;18.620;2022-09-03T07:33:29;16.10;99.90
22678;DHT22;26259;50.214;18.620;2022-09-03T07:36:01;16.10;99.90
22678;DHT22;26259;50.214;18.620;2022-09-03T07:38:26;16.10;99.90
22678;DHT22;26259;50.214;18.620;2022-09-03T07:40:59;16.30;99.90
22678;DHT22;26259;50.214;18.620;2022-09-03T07:43:27;16.40;99.90
22678;DHT22;26259;50.214;18.620;2022-09-03T07:45:53;16.40;99.90
22678;DHT22;26259;50.214;18.620;2022-09-03T07:48:20;16.40;99.90
22678;DHT22;26259;50.214;18.620;2022-09-03T07:50:45;16.40;99.90
22678;DHT22;26259;50.214;18.620;2022-09-03T07:53:14;16.50;99.90
22678;DHT22;26259;50.214;18.620;2022-09-03T07:55:41;16.50;99.90
22678;DHT22;26259;50.214;18.620;2022-09-03T07:58:07;16.60;99.90
22678;DHT22;26259;50.214;18.620;2022-09-03T08:00:33;16.70;99.90
22678;DHT22;26259;50.214;18.620;2022-09-03T08:02:58;16.70;99.90
22678;DHT22;26259;50.214;18.620;2022-09-03T08:05:31;16.90;99.90
22678;DHT22;26259;50.214;18.620;2022-09-03T08:07:59;17.00;99.90
22678;DHT22;26259;50.214;18.620;2022-09-03T08:10:25;17.00;99.90
22678;DHT22;26259;50.214;18.620;2022-09-03T08:12:52;16.90;99.90
22678;DHT22;26259;50.214;18.620;2022-09-03T08:15:18;17.00;99.90
22678;DHT22;26259;50.214;18.620;2022-09-03T08:17:44;16.90;99.90
22678;DHT22;26259;50.214;18.620;2022-09-03T08:20:10;16.80;99.90
22678;DHT22;26259;50.214;18.620;2022-09-03T08:22:35;16.70;99.90
22678;DHT22;26259;50.214;18.620;2022-09-03T08:25:02;16.80;99.90
22678;DHT22;26259;50.214;18.620;2022-09-03T08:27:28;16.70;99.90
22678;DHT22;26259;50.214;18.620;2022-09-03T08:29:54;16.50;99.90
22678;DHT22;26259;50.214;18.620;2022-09-03T08:32:20;16.50;99.90
22678;DHT22;26259;50.214;18.620;2022-09-03T08:34:45;16.60;99.90
22678;DHT22;26259;50.214;18.620;2022-09-03T08:37:11;16.80;99.90
22678;DHT22;26259;50.214;18.620;2022-09-03T08:39:37;16.90;99.90
22678;DHT22;26259;50.214;18.620;2022-09-03T08:47:19;17.80;97.60
22678;DHT22;26259;50.214;18.620;2022-09-03T08:52:49;18.30;93.20
22678;DHT22;26259;50.214;18.620;2022-09-03T08:55:26;18.30;92.70
22678;DHT22;26259;50.214;18.620;2022-09-03T08:58:15;18.00;93.20
22678;DHT22;26259;50.214;18.620;2022-09-03T09:01:00;17.80;95.50
22678;DHT22;26259;50.214;18.620;2022-09-03T09:03:59;17.50;95.40
22678;DHT22;26259;50.214;18.620;2022-09-03T09:20:08;18.50;91.20
22678;DHT22;26259;50.214;18.620;2022-09-03T09:25:26;19.00;85.80
22678;DHT22;26259;50.214;18.620;2022-09-03T09:30:39;19.10;82.30
22678;DHT22;26259;50.214;18.620;2022-09-03T09:33:05;18.90;82.40
22678;DHT22;26259;50.214;18.620;2022-09-03T09:35:31;18.70;83.60
22678;DHT22;26259;50.214;18.620;2022-09-03T09:37:57;18.60;81.90
22678;DHT22;26259;50.214;18.620;2022-09-03T09:40:40;18.40;85.10
22678;DHT22;26259;50.214;18.620;2022-09-03T09:43:15;18.30;86.20
22678;DHT22;26259;50.214;18.620;2022-09-03T09:45:50;18.50;89.20
22678;DHT22;26259;50.214;18.620;2022-09-03T09:48:29;18.70;85.60
22678;DHT22;26259;50.214;18.620;2022-09-03T09:51:13;18.80;87.10
22678;DHT22;26259;50.214;18.620;2022-09-03T09:53:42;19.20;82.70
22678;DHT22;26259;50.214;18.620;2022-09-03T09:56:28;19.30;82.30
22678;DHT22;26259;50.214;18.620;2022-09-03T09:59:10;19.60;79.90
22678;DHT22;26259;50.214;18.620;2022-09-03T10:01:40;19.40;75.00
22678;DHT22;26259;50.214;18.620;2022-09-03T10:04:10;19.50;75.20
22678;DHT22;26259;50.214;18.620;2022-09-03T10:06:36;19.10;75.20
22678;DHT22;26259;50.214;18.620;2022-09-03T10:09:27;18.80;77.60
22678;DHT22;26259;50.214;18.620;2022-09-03T10:12:03;18.70;81.60
22678;DHT22;26259;50.214;18.620;2022-09-03T10:14:38;18.70;83.60
22678;DHT22;26259;50.214;18.620;2022-09-03T10:17:20;18.80;81.50
22678;DHT22;26259;50.214;18.620;2022-09-03T10:19:56;18.90;81.90
22678;DHT22;26259;50.214;18.620;2022-09-03T10:22:48;19.00;85.30
22678;DHT22;26259;50.214;18.620;2022-09-03T10:25:16;19.10;81.70
22678;DHT22;26259;50.214;18.620;2022-09-03T10:27:44;19.20;80.10
22678;DHT22;26259;50.214;18.620;2022-09-03T10:30:11;19.30;80.70
22678;DHT22;26259;50.214;18.620;2022-09-03T10:33:06;19.20;79.90
22678;DHT22;26259;50.214;18.620;2022-09-03T10:35:42;19.20;77.50
22678;DHT22;26259;50.214;18.620;2022-09-03T10:38:29;19.10;78.70
22678;DHT22;26259;50.214;18.620;2022-09-03T10:42:00;19.10;79.00
22678;DHT22;26259;50.214;18.620;2022-09-03T10:49:40;19.40;78.60
22678;DHT22;26259;50.214;18.620;2022-09-03T10:52:30;19.50;80.50
22678;DHT22;26259;50.214;18.620;2022-09-03T10:55:09;19.50;77.10
22678;DHT22;26259;50.214;18.620;2022-09-03T11:00:31;18.90;78.90
22678;DHT22;26259;50.214;18.620;2022-09-03T11:06:02;18.50;84.10
22678;DHT22;26259;50.214;18.620;2022-09-03T11:08:40;18.60;85.20
22678;DHT22;26259;50.214;18.620;2022-09-03T11:11:35;18.70;84.50
22678;DHT22;26259;50.214;18.620;2022-09-03T11:14:08;18.60;83.70
22678;DHT22;26259;50.214;18.620;2022-09-03T11:16:39;18.50;83.90
22678;DHT22;26259;50.214;18.620;2022-09-03T11:19:08;18.50;86.70
22678;DHT22;26259;50.214;18.620;2022-09-03T11:21:37;18.60;84.60
22678;DHT22;26259;50.214;18.620;2022-09-03T11:24:13;18.50;82.90
22678;DHT22;26259;50.214;18.620;2022-09-03T11:26:44;18.50;87.60
22678;DHT22;26259;50.214;18.620;2022-09-03T11:29:32;18.50;87.90
22678;DHT22;26259;50.214;18.620;2022-09-03T11:32:17;18.50;90.30
22678;DHT22;26259;50.214;18.620;2022-09-03T11:34:47;18.70;85.50
22678;DHT22;26259;50.214;18.620;2022-09-03T11:37:23;18.70;86.10
22678;DHT22;26259;50.214;18.620;2022-09-03T11:42:33;18.40;88.10
22678;DHT22;26259;50.214;18.620;2022-09-03T11:45:21;18.30;90.10
22678;DHT22;26259;50.214;18.620;2022-09-03T11:47:48;18.30;89.90
22678;DHT22;26259;50.214;18.620;2022-09-03T11:50:27;18.20;90.70
22678;DHT22;26259;50.214;18.620;2022-09-03T11:53:25;18.10;92.50
22678;DHT22;26259;50.214;18.620;2022-09-03T11:55:58;18.00;93.40
22678;DHT22;26259;50.214;18.620;2022-09-03T11:58:30;17.90;94.50
22678;DHT22;26259;50.214;18.620;2022-09-03T12:01:01;17.90;94.20
22678;DHT22;26259;50.214;18.620;2022-09-03T12:03:42;17.90;95.00
22678;DHT22;26259;50.214;18.620;2022-09-03T12:09:24;18.20;92.60
22678;DHT22;26259;50.214;18.620;2022-09-03T12:12:41;18.50;92.00
22678;DHT22;26259;50.214;18.620;2022-09-03T12:18:23;18.80;84.90
22678;DHT22;26259;50.214;18.620;2022-09-03T12:21:10;18.70;85.50
22678;DHT22;26259;50.214;18.620;2022-09-03T12:23:42;18.70;84.20
22678;DHT22;26259;50.214;18.620;2022-09-03T12:28:49;18.80;82.20
22678;DHT22;26259;50.214;18.620;2022-09-03T12:31:22;19.00;83.10
22678;DHT22;26259;50.214;18.620;2022-09-03T12:33:50;18.80;83.10
22678;DHT22;26259;50.214;18.620;2022-09-03T12:36:16;18.80;81.40
22678;DHT22;26259;50.214;18.620;2022-09-03T12:38:42;18.80;81.40
22678;DHT22;26259;50.214;18.620;2022-09-03T12:41:57;18.60;79.60
22678;DHT22;26259;50.214;18.620;2022-09-03T12:47:10;18.30;84.70
22678;DHT22;26259;50.214;18.620;2022-09-03T12:49:41;18.40;84.90
22678;DHT22;26259;50.214;18.620;2022-09-03T12:57:24;18.90;81.80
22678;DHT22;26259;50.214;18.620;2022-09-03T12:59:53;19.10;81.70
22678;DHT22;26259;50.214;18.620;2022-09-03T13:02:25;19.10;78.90
22678;DHT22;26259;50.214;18.620;2022-09-03T13:04:52;18.90;81.20
22678;DHT22;26259;50.214;18.620;2022-09-03T13:07:35;18.80;83.80
22678;DHT22;26259;50.214;18.620;2022-09-03T13:10:07;19.00;81.40
22678;DHT22;26259;50.214;18.620;2022-09-03T13:12:43;18.90;82.00
22678;DHT22;26259;50.214;18.620;2022-09-03T13:15:21;19.00;80.70
22678;DHT22;26259;50.214;18.620;2022-09-03T13:31:59;19.10;78.40
22678;DHT22;26259;50.214;18.620;2022-09-03T13:34:40;19.30;80.20
22678;DHT22;26259;50.214;18.620;2022-09-03T13:39:55;19.30;79.10
22678;DHT22;26259;50.214;18.620;2022-09-03T13:45:27;19.30;79.40
22678;DHT22;26259;50.214;18.620;2022-09-03T13:48:08;19.40;79.00
22678;DHT22;26259;50.214;18.620;2022-09-03T13:51:11;19.00;79.90
22678;DHT22;26259;50.214;18.620;2022-09-03T13:57:08;19.00;84.40
22678;DHT22;26259;50.214;18.620;2022-09-03T13:59:51;19.10;82.40
22678;DHT22;26259;50.214;18.620;2022-09-03T14:05:14;19.10;81.30
22678;DHT22;26259;50.214;18.620;2022-09-03T14:11:13;19.50;78.30
22678;DHT22;26259;50.214;18.620;2022-09-03T14:16:22;19.20;79.30
22678;DHT22;26259;50.214;18.620;2022-09-03T14:19:02;19.20;80.20
22678;DHT22;26259;50.214;18.620;2022-09-03T14:24:42;19.30;82.20
22678;DHT22;26259;50.214;18.620;2022-09-03T14:27:09;19.30;81.60
22678;DHT22;26259;50.214;18.620;2022-09-03T14:29:35;19.30;81.70
22678;DHT22;26259;50.214;18.620;2022-09-03T14:40:26;19.40;82.60
22678;DHT22;26259;50.214;18.620;2022-09-03T14:54:34;19.60;81.80
22678;DHT22;26259;50.214;18.620;2022-09-03T15:05:14;19.30;81.70
22678;DHT22;26259;50.214;18.620;2022-09-03T15:07:55;19.40;82.70
22678;DHT22;26259;50.214;18.620;2022-09-03T15:10:51;19.50;83.90
22678;DHT22;26259;50.214;18.620;2022-09-03T15:13:29;19.70;85.20
22678;DHT22;26259;50.214;18.620;2022-09-03T15:16:11;20.00;82.70
22678;DHT22;26259;50.214;18.620;2022-09-03T15:24:55;20.20;79.60
22678;DHT22;26259;50.214;18.620;2022-09-03T15:30:08;19.80;79.80
22678;DHT22;26259;50.214;18.620;2022-09-03T15:32:55;19.70;80.40
22678;DHT22;26259;50.214;18.620;2022-09-03T15:38:54;19.60;81.20
22678;DHT22;26259;50.214;18.620;2022-09-03T15:41:54;19.50;81.90
22678;DHT22;26259;50.214;18.620;2022-09-03T15:44:22;19.30;83.30
22678;DHT22;26259;50.214;18.620;2022-09-03T15:46:55;19.20;86.70
22678;DHT22;26259;50.214;18.620;2022-09-03T16:03:11;19.00;92.90
22678;DHT22;26259;50.214;18.620;2022-09-03T16:05:45;19.00;93.00
22678;DHT22;26259;50.214;18.620;2022-09-03T16:14:15;19.00;91.00
22678;DHT22;26259;50.214;18.620;2022-09-03T16:17:06;18.90;92.70
22678;DHT22;26259;50.214;18.620;2022-09-03T16:19:55;18.70;93.70
22678;DHT22;26259;50.214;18.620;2022-09-03T16:22:59;18.70;94.40
22678;DHT22;26259;50.214;18.620;2022-09-03T16:25:19;18.60;95.80
22678;DHT22;26259;50.214;18.620;2022-09-03T16:28:09;18.50;99.20
22678;DHT22;26259;50.214;18.620;2022-09-03T16:30:56;18.40;99.90
22678;DHT22;26259;50.214;18.620;2022-09-03T16:33:56;18.30;99.70
22678;DHT22;26259;50.214;18.620;2022-09-03T16:39:11;18.00;99.90
22678;DHT22;26259;50.214;18.620;2022-09-03T16:50:40;17.60;99.90
22678;DHT22;26259;50.214;18.620;2022-09-03T16:55:42;17.20;99.90
22678;DHT22;26259;50.214;18.620;2022-09-03T17:04:03;16.60;99.90
22678;DHT22;26259;50.214;18.620;2022-09-03T17:18:34;15.80;99.90
22678;DHT22;26259;50.214;18.620;2022-09-03T17:29:24;15.30;99.90
22678;DHT22;26259;50.214;18.620;2022-09-03T17:43:17;14.40;99.90
22678;DHT22;26259;50.214;18.620;2022-09-03T17:48:52;14.00;99.90
22678;DHT22;26259;50.214;18.620;2022-09-03T17:53:54;13.70;99.90
22678;DHT22;26259;50.214;18.620;2022-09-03T17:56:28;13.60;99.90
22678;DHT22;26259;50.214;18.620;2022-09-03T18:02:11;13.30;99.90
22678;DHT22;26259;50.214;18.620;2022-09-03T18:04:52;13.20;99.90
22678;DHT22;26259;50.214;18.620;2022-09-03T18:07:30;13.10;99.90
22678;DHT22;26259;50.214;18.620;2022-09-03T18:18:26;12.70;99.90
22678;DHT22;26259;50.214;18.620;2022-09-03T18:20:55;12.70;99.90
22678;DHT22;26259;50.214;18.620;2022-09-03T18:23:51;12.60;99.90
22678;DHT22;26259;50.214;18.620;2022-09-03T18:26:43;12.50;99.90
22678;DHT22;26259;50.214;18.620;2022-09-03T18:29:42;12.40;99.90
22678;DHT22;26259;50.214;18.620;2022-09-03T18:32:31;12.30;99.90
22678;DHT22;26259;50.214;18.620;2022-09-03T18:35:15;12.20;99.90
22678;DHT22;26259;50.214;18.620;2022-09-03T18:38:02;12.20;99.90
22678;DHT22;26259;50.214;18.620;2022-09-03T18:40:55;12.10;99.90
22678;DHT22;26259;50.214;18.620;2022-09-03T18:46:52;11.90;99.90
22678;DHT22;26259;50.214;18.620;2022-09-03T18:52:48;11.70;99.90
22678;DHT22;26259;50.214;18.620;2022-09-03T19:01:32;11.50;99.90
22678;DHT22;26259;50.214;18.620;2022-09-03T19:07:58;11.40;99.90
22678;DHT22;26259;50.214;18.620;2022-09-03T19:10:21;11.30;99.90
22678;DHT22;26259;50.214;18.620;2022-09-03T19:22:26;11.20;99.90
22678;DHT22;26259;50.214;18.620;2022-09-03T19:25:13;11.10;99.90
22678;DHT22;26259;50.214;18.620;2022-09-03T19:37:39;10.90;99.90
22678;DHT22;26259;50.214;18.620;2022-09-03T19:40:56;10.90;99.90
22678;DHT22;26259;50.214;18.620;2022-09-03T19:55:24;10.50;99.90
22678;DHT22;26259;50.214;18.620;2022-09-03T19:58:10;10.50;99.90
22678;DHT22;26259;50.214;18.620;2022-09-03T20:00:55;10.50;99.90
22678;DHT22;26259;50.214;18.620;2022-09-03T20:03:41;10.40;99.90
22678;DHT22;26259;50.214;18.620;2022-09-03T20:06:25;10.40;99.90
22678;DHT22;26259;50.214;18.620;2022-09-03T20:09:09;10.40;99.90
22678;DHT22;26259;50.214;18.620;2022-09-03T20:11:58;10.40;99.90
22678;DHT22;26259;50.214;18.620;2022-09-03T20:14:27;10.30;99.90
22678;DHT22;26259;50.214;18.620;2022-09-03T20:19:30;10.30;99.90
22678;DHT22;26259;50.214;18.620;2022-09-03T20:22:31;10.30;99.90
22678;DHT22;26259;50.214;18.620;2022-09-03T20:33:37;10.10;99.90
22678;DHT22;26259;50.214;18.620;2022-09-03T20:36:15;10.10;99.90
22678;DHT22;26259;50.214;18.620;2022-09-03T20:44:37;10.00;99.90
22678;DHT22;26259;50.214;18.620;2022-09-03T20:49:52;10.00;99.90
22678;DHT22;26259;50.214;18.620;2022-09-03T20:55:11;10.00;99.90
22678;DHT22;26259;50.214;18.620;2022-09-03T21:00:15;10.00;99.90
22678;DHT22;26259;50.214;18.620;2022-09-03T21:11:47;10.10;99.90
22678;DHT22;26259;50.214;18.620;2022-09-03T21:19:57;10.00;99.90
22678;DHT22;26259;50.214;18.620;2022-09-03T21:25:35;10.00;99.90
22678;DHT22;26259;50.214;18.620;2022-09-03T21:31:18;10.00;99.90
22678;DHT22;26259;50.214;18.620;2022-09-03T21:33:47;9.90;99.90
22678;DHT22;26259;50.214;18.620;2022-09-03T21:36:29;9.90;99.90
22678;DHT22;26259;50.214;18.620;2022-09-03T21:39:30;9.90;99.90
22678;DHT22;26259;50.214;18.620;2022-09-03T21:41:54;9.90;99.90
22678;DHT22;26259;50.214;18.620;2022-09-03T21:44:56;9.80;99.90
22678;DHT22;26259;50.214;18.620;2022-09-03T21:47:26;9.90;99.90
22678;DHT22;26259;50.214;18.620;2022-09-03T21:50:16;9.90;99.90
22678;DHT22;26259;50.214;18.620;2022-09-03T22:01:09;10.00;99.90
22678;DHT22;26259;50.214;18.620;2022-09-03T22:03:37;10.10;99.90
22678;DHT22;26259;50.214;18.620;2022-09-03T22:06:08;10.10;99.90
22678;DHT22;26259;50.214;18.620;2022-09-03T22:08:47;10.10;99.90